KCKM/CKM METAR and TAF weather

Enter ICAO airport designator
Station Type Date Time Source
KCKM METAR 2022/11/30 11:15 UTC NOAA

KCKM 301115Z AUTO 35019G28KT 10SM OVC055 05/00 A3017 RMK A01


Station Type Date Time Source
KCKM Decoded METAR 2022/11/30 11:15 UTC NOAA

Station name not available
Nov 30, 2022 - 06:15 AM EST / 2022.11.30 1115 UTC
Wind: from the N (350 degrees) at 22 MPH (19 KT) gusting to 32 MPH (28 KT):0
Visibility: 10 mile(s):0
Sky conditions: overcast
Temperature: 41 F (5 C)
Dew Point: 32 F (0 C)
Relative Humidity: 70%
Pressure (altimeter): 30.17 in. Hg (1021 hPa)
ob: KCKM 301115Z AUTO 35019G28KT 10SM OVC055 05/00 A3017 RMK A01
cycle: 11

Station Type Date Time Source
KCKM TAF UTC NOAA

Error!

Example: see airport list